sensor_id;sensor_type;location;lat;lon;timestamp;temperature;humidity
77100;SHT31;66602;48.922;2.414;2024-03-29T00:03:38;8.49;81.73
77100;SHT31;66602;48.922;2.414;2024-03-29T00:06:04;8.75;80.26
77100;SHT31;66602;48.922;2.414;2024-03-29T00:08:29;8.77;80.19
77100;SHT31;66602;48.922;2.414;2024-03-29T00:10:55;8.74;80.84
77100;SHT31;66602;48.922;2.414;2024-03-29T00:13:20;8.68;81.06
77100;SHT31;66602;48.922;2.414;2024-03-29T00:15:45;8.63;82.38
77100;SHT31;66602;48.922;2.414;2024-03-29T00:18:11;8.59;82.46
77100;SHT31;66602;48.922;2.414;2024-03-29T00:20:36;8.44;83.16
77100;SHT31;66602;48.922;2.414;2024-03-29T00:23:02;8.39;84.59
77100;SHT31;66602;48.922;2.414;2024-03-29T00:25:27;8.33;84.22
77100;SHT31;66602;48.922;2.414;2024-03-29T00:27:53;8.26;84.85
77100;SHT31;66602;48.922;2.414;2024-03-29T00:30:18;8.25;85.56
77100;SHT31;66602;48.922;2.414;2024-03-29T00:32:44;8.22;85.44
77100;SHT31;66602;48.922;2.414;2024-03-29T00:35:09;8.19;85.60
77100;SHT31;66602;48.922;2.414;2024-03-29T00:37:35;8.17;85.25
77100;SHT31;66602;48.922;2.414;2024-03-29T00:40:00;8.16;85.35
77100;SHT31;66602;48.922;2.414;2024-03-29T00:42:26;8.15;85.75
77100;SHT31;66602;48.922;2.414;2024-03-29T00:44:51;8.12;85.77
77100;SHT31;66602;48.922;2.414;2024-03-29T00:47:17;8.15;86.46
77100;SHT31;66602;48.922;2.414;2024-03-29T00:49:43;8.21;87.04
77100;SHT31;66602;48.922;2.414;2024-03-29T00:52:08;8.21;87.35
77100;SHT31;66602;48.922;2.414;2024-03-29T00:54:34;8.22;87.85
77100;SHT31;66602;48.922;2.414;2024-03-29T00:56:59;8.22;87.89
77100;SHT31;66602;48.922;2.414;2024-03-29T00:59:25;8.21;88.33
77100;SHT31;66602;48.922;2.414;2024-03-29T01:01:50;8.26;88.44
77100;SHT31;66602;48.922;2.414;2024-03-29T01:04:16;8.28;87.94
77100;SHT31;66602;48.922;2.414;2024-03-29T01:06:42;8.30;88.00
77100;SHT31;66602;48.922;2.414;2024-03-29T01:09:08;8.33;87.41
77100;SHT31;66602;48.922;2.414;2024-03-29T01:11:38;8.33;87.54
77100;SHT31;66602;48.922;2.414;2024-03-29T01:14:04;8.35;87.58
77100;SHT31;66602;48.922;2.414;2024-03-29T01:16:31;8.39;87.23
77100;SHT31;66602;48.922;2.414;2024-03-29T01:18:59;8.39;87.25
77100;SHT31;66602;48.922;2.414;2024-03-29T01:21:28;8.40;87.40
77100;SHT31;66602;48.922;2.414;2024-03-29T01:23:53;8.43;86.25
77100;SHT31;66602;48.922;2.414;2024-03-29T01:26:20;8.44;86.61
77100;SHT31;66602;48.922;2.414;2024-03-29T01:28:45;8.37;86.43
77100;SHT31;66602;48.922;2.414;2024-03-29T01:31:15;8.37;86.98
77100;SHT31;66602;48.922;2.414;2024-03-29T01:33:40;8.36;87.35
77100;SHT31;66602;48.922;2.414;2024-03-29T01:36:07;8.36;87.74
77100;SHT31;66602;48.922;2.414;2024-03-29T01:38:33;8.36;87.81
77100;SHT31;66602;48.922;2.414;2024-03-29T01:41:00;8.37;87.74
77100;SHT31;66602;48.922;2.414;2024-03-29T01:43:26;8.33;88.00
77100;SHT31;66602;48.922;2.414;2024-03-29T01:45:55;8.32;88.22
77100;SHT31;66602;48.922;2.414;2024-03-29T01:48:22;8.32;88.51
77100;SHT31;66602;48.922;2.414;2024-03-29T01:50:50;8.35;89.20
77100;SHT31;66602;48.922;2.414;2024-03-29T01:53:16;8.30;89.33
77100;SHT31;66602;48.922;2.414;2024-03-29T01:55:43;8.32;89.37
77100;SHT31;66602;48.922;2.414;2024-03-29T01:58:09;8.33;89.61
77100;SHT31;66602;48.922;2.414;2024-03-29T02:00:36;8.33;89.70
77100;SHT31;66602;48.922;2.414;2024-03-29T02:03:05;8.30;89.74
77100;SHT31;66602;48.922;2.414;2024-03-29T02:05:36;8.30;89.99
77100;SHT31;66602;48.922;2.414;2024-03-29T02:08:04;8.28;90.36
77100;SHT31;66602;48.922;2.414;2024-03-29T02:10:29;8.26;90.60
77100;SHT31;66602;48.922;2.414;2024-03-29T02:12:55;8.30;90.75
77100;SHT31;66602;48.922;2.414;2024-03-29T02:15:20;8.30;90.76
77100;SHT31;66602;48.922;2.414;2024-03-29T02:17:46;8.29;90.93
77100;SHT31;66602;48.922;2.414;2024-03-29T02:20:11;8.35;90.85
77100;SHT31;66602;48.922;2.414;2024-03-29T02:22:41;8.35;90.47
77100;SHT31;66602;48.922;2.414;2024-03-29T02:25:09;8.37;90.53
77100;SHT31;66602;48.922;2.414;2024-03-29T02:27:34;8.47;88.47
77100;SHT31;66602;48.922;2.414;2024-03-29T02:30:00;8.57;87.59
77100;SHT31;66602;48.922;2.414;2024-03-29T02:32:25;8.68;85.85
77100;SHT31;66602;48.922;2.414;2024-03-29T02:34:53;8.74;85.25
77100;SHT31;66602;48.922;2.414;2024-03-29T02:37:18;8.87;84.54
77100;SHT31;66602;48.922;2.414;2024-03-29T02:39:44;8.92;84.71
77100;SHT31;66602;48.922;2.414;2024-03-29T02:42:09;8.95;83.99
77100;SHT31;66602;48.922;2.414;2024-03-29T02:44:34;9.01;84.12
77100;SHT31;66602;48.922;2.414;2024-03-29T02:47:00;9.00;83.65
77100;SHT31;66602;48.922;2.414;2024-03-29T02:49:25;9.01;83.92
77100;SHT31;66602;48.922;2.414;2024-03-29T02:51:51;9.01;84.28
77100;SHT31;66602;48.922;2.414;2024-03-29T02:54:18;9.07;84.09
77100;SHT31;66602;48.922;2.414;2024-03-29T02:56:43;9.08;84.16
77100;SHT31;66602;48.922;2.414;2024-03-29T02:59:09;9.18;83.85
77100;SHT31;66602;48.922;2.414;2024-03-29T03:01:34;9.24;83.97
77100;SHT31;66602;48.922;2.414;2024-03-29T03:04:00;9.36;83.70
77100;SHT31;66602;48.922;2.414;2024-03-29T03:06:25;9.29;84.10
77100;SHT31;66602;48.922;2.414;2024-03-29T03:08:51;9.25;84.09
77100;SHT31;66602;48.922;2.414;2024-03-29T03:11:35;9.24;84.14
77100;SHT31;66602;48.922;2.414;2024-03-29T03:14:00;9.26;83.98
77100;SHT31;66602;48.922;2.414;2024-03-29T03:16:26;9.29;84.23
77100;SHT31;66602;48.922;2.414;2024-03-29T03:18:51;9.26;84.57
77100;SHT31;66602;48.922;2.414;2024-03-29T03:21:17;9.26;84.58
77100;SHT31;66602;48.922;2.414;2024-03-29T03:23:42;9.31;84.06
77100;SHT31;66602;48.922;2.414;2024-03-29T03:26:07;9.34;84.30
77100;SHT31;66602;48.922;2.414;2024-03-29T03:28:33;9.32;84.49
77100;SHT31;66602;48.922;2.414;2024-03-29T03:30:58;9.31;84.96
77100;SHT31;66602;48.922;2.414;2024-03-29T03:33:24;9.38;84.75
77100;SHT31;66602;48.922;2.414;2024-03-29T03:35:49;9.43;84.52
77100;SHT31;66602;48.922;2.414;2024-03-29T03:38:15;9.46;84.64
77100;SHT31;66602;48.922;2.414;2024-03-29T03:40:41;9.49;84.66
77100;SHT31;66602;48.922;2.414;2024-03-29T03:43:07;9.50;84.50
77100;SHT31;66602;48.922;2.414;2024-03-29T03:45:36;9.45;84.95
77100;SHT31;66602;48.922;2.414;2024-03-29T03:48:03;9.47;85.09
77100;SHT31;66602;48.922;2.414;2024-03-29T03:50:29;9.49;85.15
77100;SHT31;66602;48.922;2.414;2024-03-29T03:52:55;9.55;85.13
77100;SHT31;66602;48.922;2.414;2024-03-29T03:55:21;9.60;85.06
77100;SHT31;66602;48.922;2.414;2024-03-29T03:57:46;9.67;85.07
77100;SHT31;66602;48.922;2.414;2024-03-29T04:00:12;9.69;84.89
77100;SHT31;66602;48.922;2.414;2024-03-29T04:02:38;9.76;85.08
77100;SHT31;66602;48.922;2.414;2024-03-29T04:05:03;9.80;84.95
77100;SHT31;66602;48.922;2.414;2024-03-29T04:07:29;9.91;84.44
77100;SHT31;66602;48.922;2.414;2024-03-29T04:09:54;9.89;84.83
77100;SHT31;66602;48.922;2.414;2024-03-29T04:12:20;9.91;84.84
77100;SHT31;66602;48.922;2.414;2024-03-29T04:14:45;9.98;84.76
77100;SHT31;66602;48.922;2.414;2024-03-29T04:17:11;10.00;84.77
77100;SHT31;66602;48.922;2.414;2024-03-29T04:19:36;10.08;84.63
77100;SHT31;66602;48.922;2.414;2024-03-29T04:22:02;10.11;84.78
77100;SHT31;66602;48.922;2.414;2024-03-29T04:24:30;10.20;84.46
77100;SHT31;66602;48.922;2.414;2024-03-29T04:26:56;10.18;84.54
77100;SHT31;66602;48.922;2.414;2024-03-29T04:29:22;10.13;84.79
77100;SHT31;66602;48.922;2.414;2024-03-29T04:31:47;10.13;85.03
77100;SHT31;66602;48.922;2.414;2024-03-29T04:34:12;10.20;84.72
77100;SHT31;66602;48.922;2.414;2024-03-29T04:36:38;10.27;84.07
77100;SHT31;66602;48.922;2.414;2024-03-29T04:39:06;10.33;84.10
77100;SHT31;66602;48.922;2.414;2024-03-29T04:41:32;10.34;84.10
77100;SHT31;66602;48.922;2.414;2024-03-29T04:44:02;10.30;84.27
77100;SHT31;66602;48.922;2.414;2024-03-29T04:46:31;10.33;83.90
77100;SHT31;66602;48.922;2.414;2024-03-29T04:48:57;10.33;83.87
77100;SHT31;66602;48.922;2.414;2024-03-29T04:51:22;10.31;84.23
77100;SHT31;66602;48.922;2.414;2024-03-29T04:53:48;10.30;84.13
77100;SHT31;66602;48.922;2.414;2024-03-29T04:56:13;10.28;84.41
77100;SHT31;66602;48.922;2.414;2024-03-29T04:58:39;10.30;84.33
77100;SHT31;66602;48.922;2.414;2024-03-29T05:01:04;10.30;84.48
77100;SHT31;66602;48.922;2.414;2024-03-29T05:03:30;10.30;84.54
77100;SHT31;66602;48.922;2.414;2024-03-29T05:05:56;10.30;84.47
77100;SHT31;66602;48.922;2.414;2024-03-29T05:08:21;10.22;84.85
77100;SHT31;66602;48.922;2.414;2024-03-29T05:10:50;10.27;84.43
77100;SHT31;66602;48.922;2.414;2024-03-29T05:13:16;10.21;84.62
77100;SHT31;66602;48.922;2.414;2024-03-29T05:15:42;10.24;84.24
77100;SHT31;66602;48.922;2.414;2024-03-29T05:18:08;10.22;84.54
77100;SHT31;66602;48.922;2.414;2024-03-29T05:20:34;10.22;84.68
77100;SHT31;66602;48.922;2.414;2024-03-29T05:22:59;10.20;84.53
77100;SHT31;66602;48.922;2.414;2024-03-29T05:25:25;10.21;84.63
77100;SHT31;66602;48.922;2.414;2024-03-29T05:27:51;10.22;84.70
77100;SHT31;66602;48.922;2.414;2024-03-29T05:30:16;10.20;84.84
77100;SHT31;66602;48.922;2.414;2024-03-29T05:32:42;10.22;84.60
77100;SHT31;66602;48.922;2.414;2024-03-29T05:35:08;10.24;84.17
77100;SHT31;66602;48.922;2.414;2024-03-29T05:37:35;10.24;84.26
77100;SHT31;66602;48.922;2.414;2024-03-29T05:40:00;10.17;84.49
77100;SHT31;66602;48.922;2.414;2024-03-29T05:42:30;10.27;83.82
77100;SHT31;66602;48.922;2.414;2024-03-29T05:44:56;10.27;83.40
77100;SHT31;66602;48.922;2.414;2024-03-29T05:47:22;10.30;83.62
77100;SHT31;66602;48.922;2.414;2024-03-29T05:49:49;10.27;83.91
77100;SHT31;66602;48.922;2.414;2024-03-29T05:52:16;10.27;83.98
77100;SHT31;66602;48.922;2.414;2024-03-29T05:54:43;10.30;83.62
77100;SHT31;66602;48.922;2.414;2024-03-29T05:57:08;10.31;83.61
77100;SHT31;66602;48.922;2.414;2024-03-29T05:59:37;10.25;84.05
77100;SHT31;66602;48.922;2.414;2024-03-29T06:02:03;10.25;83.78
77100;SHT31;66602;48.922;2.414;2024-03-29T06:04:29;10.22;83.76
77100;SHT31;66602;48.922;2.414;2024-03-29T06:07:00;10.21;83.60
77100;SHT31;66602;48.922;2.414;2024-03-29T06:09:26;10.22;83.41
77100;SHT31;66602;48.922;2.414;2024-03-29T06:11:53;10.17;83.68
77100;SHT31;66602;48.922;2.414;2024-03-29T06:14:19;10.20;83.31
77100;SHT31;66602;48.922;2.414;2024-03-29T06:17:04;10.22;82.99
77100;SHT31;66602;48.922;2.414;2024-03-29T06:19:48;10.24;82.81
77100;SHT31;66602;48.922;2.414;2024-03-29T06:22:15;10.21;82.82
77100;SHT31;66602;48.922;2.414;2024-03-29T06:24:42;10.22;82.21
77100;SHT31;66602;48.922;2.414;2024-03-29T06:27:09;10.30;82.25
77100;SHT31;66602;48.922;2.414;2024-03-29T06:29:34;10.28;82.47
77100;SHT31;66602;48.922;2.414;2024-03-29T06:32:00;10.31;82.30
77100;SHT31;66602;48.922;2.414;2024-03-29T06:34:25;10.37;81.88
77100;SHT31;66602;48.922;2.414;2024-03-29T06:36:51;10.41;81.93
77100;SHT31;66602;48.922;2.414;2024-03-29T06:39:16;10.45;82.01
77100;SHT31;66602;48.922;2.414;2024-03-29T06:41:42;10.44;81.76
77100;SHT31;66602;48.922;2.414;2024-03-29T06:44:08;10.49;81.22
77100;SHT31;66602;48.922;2.414;2024-03-29T06:46:35;10.48;81.43
77100;SHT31;66602;48.922;2.414;2024-03-29T06:49:00;10.48;81.29
77100;SHT31;66602;48.922;2.414;2024-03-29T06:51:26;10.56;81.25
77100;SHT31;66602;48.922;2.414;2024-03-29T06:53:51;10.58;81.51
77100;SHT31;66602;48.922;2.414;2024-03-29T06:56:17;10.63;81.37
77100;SHT31;66602;48.922;2.414;2024-03-29T06:58:43;10.73;80.95
77100;SHT31;66602;48.922;2.414;2024-03-29T07:01:08;10.79;81.00
77100;SHT31;66602;48.922;2.414;2024-03-29T07:03:35;10.82;81.01
77100;SHT31;66602;48.922;2.414;2024-03-29T07:06:00;10.86;81.14
77100;SHT31;66602;48.922;2.414;2024-03-29T07:08:25;10.92;80.97
77100;SHT31;66602;48.922;2.414;2024-03-29T07:10:58;11.00;80.90
77100;SHT31;66602;48.922;2.414;2024-03-29T07:13:24;11.09;81.01
77100;SHT31;66602;48.922;2.414;2024-03-29T07:15:53;11.12;80.86
77100;SHT31;66602;48.922;2.414;2024-03-29T07:18:18;11.10;81.21
77100;SHT31;66602;48.922;2.414;2024-03-29T07:20:44;11.17;81.08
77100;SHT31;66602;48.922;2.414;2024-03-29T07:23:09;11.26;81.13
77100;SHT31;66602;48.922;2.414;2024-03-29T07:25:36;11.33;80.84
77100;SHT31;66602;48.922;2.414;2024-03-29T07:28:02;11.35;81.06
77100;SHT31;66602;48.922;2.414;2024-03-29T07:30:28;11.41;80.92
77100;SHT31;66602;48.922;2.414;2024-03-29T07:32:53;11.41;81.05
77100;SHT31;66602;48.922;2.414;2024-03-29T07:35:19;11.40;81.63
77100;SHT31;66602;48.922;2.414;2024-03-29T07:37:44;11.47;81.33
77100;SHT31;66602;48.922;2.414;2024-03-29T07:40:13;11.53;80.97
77100;SHT31;66602;48.922;2.414;2024-03-29T07:42:38;11.60;80.91
77100;SHT31;66602;48.922;2.414;2024-03-29T07:45:04;11.60;80.95
77100;SHT31;66602;48.922;2.414;2024-03-29T07:47:30;11.68;80.75
77100;SHT31;66602;48.922;2.414;2024-03-29T07:49:55;11.74;80.40
77100;SHT31;66602;48.922;2.414;2024-03-29T07:52:21;11.84;80.66
77100;SHT31;66602;48.922;2.414;2024-03-29T07:54:47;11.92;79.79
77100;SHT31;66602;48.922;2.414;2024-03-29T07:57:12;11.95;79.11
77100;SHT31;66602;48.922;2.414;2024-03-29T07:59:40;12.06;79.04
77100;SHT31;66602;48.922;2.414;2024-03-29T08:02:06;12.18;78.62
77100;SHT31;66602;48.922;2.414;2024-03-29T08:04:31;12.29;78.42
77100;SHT31;66602;48.922;2.414;2024-03-29T08:06:57;12.39;77.88
77100;SHT31;66602;48.922;2.414;2024-03-29T08:09:22;12.46;77.99
77100;SHT31;66602;48.922;2.414;2024-03-29T08:11:48;12.49;77.76
77100;SHT31;66602;48.922;2.414;2024-03-29T08:14:13;12.50;77.63
77100;SHT31;66602;48.922;2.414;2024-03-29T08:16:39;12.42;77.41
77100;SHT31;66602;48.922;2.414;2024-03-29T08:19:05;12.46;77.39
77100;SHT31;66602;48.922;2.414;2024-03-29T08:21:32;12.44;77.29
77100;SHT31;66602;48.922;2.414;2024-03-29T08:23:57;12.42;77.00
77100;SHT31;66602;48.922;2.414;2024-03-29T08:26:23;12.49;77.31
77100;SHT31;66602;48.922;2.414;2024-03-29T08:28:49;12.59;77.12
77100;SHT31;66602;48.922;2.414;2024-03-29T08:31:15;12.65;77.14
77100;SHT31;66602;48.922;2.414;2024-03-29T08:33:41;12.84;75.94
77100;SHT31;66602;48.922;2.414;2024-03-29T08:36:08;12.87;75.08
77100;SHT31;66602;48.922;2.414;2024-03-29T08:38:36;12.95;75.60
77100;SHT31;66602;48.922;2.414;2024-03-29T08:41:02;13.04;74.80
77100;SHT31;66602;48.922;2.414;2024-03-29T08:43:28;13.15;73.06
77100;SHT31;66602;48.922;2.414;2024-03-29T08:45:53;13.31;72.76
77100;SHT31;66602;48.922;2.414;2024-03-29T08:48:19;13.41;72.63
77100;SHT31;66602;48.922;2.414;2024-03-29T08:50:44;13.63;71.49
77100;SHT31;66602;48.922;2.414;2024-03-29T08:53:11;13.72;71.40
77100;SHT31;66602;48.922;2.414;2024-03-29T08:55:36;13.72;71.42
77100;SHT31;66602;48.922;2.414;2024-03-29T08:58:04;13.96;70.26
77100;SHT31;66602;48.922;2.414;2024-03-29T09:00:30;14.35;69.08
77100;SHT31;66602;48.922;2.414;2024-03-29T09:02:56;14.06;69.48
77100;SHT31;66602;48.922;2.414;2024-03-29T09:05:22;13.87;69.84
77100;SHT31;66602;48.922;2.414;2024-03-29T09:07:48;13.84;70.36
77100;SHT31;66602;48.922;2.414;2024-03-29T09:10:14;13.55;70.64
77100;SHT31;66602;48.922;2.414;2024-03-29T09:12:39;13.46;71.96
77100;SHT31;66602;48.922;2.414;2024-03-29T09:15:05;13.39;71.80
77100;SHT31;66602;48.922;2.414;2024-03-29T09:17:44;13.53;72.08
77100;SHT31;66602;48.922;2.414;2024-03-29T09:20:10;13.79;70.65
77100;SHT31;66602;48.922;2.414;2024-03-29T09:22:36;14.03;70.26
77100;SHT31;66602;48.922;2.414;2024-03-29T09:25:03;14.13;69.68
77100;SHT31;66602;48.922;2.414;2024-03-29T09:27:29;14.06;69.36
77100;SHT31;66602;48.922;2.414;2024-03-29T09:29:59;13.96;70.32
77100;SHT31;66602;48.922;2.414;2024-03-29T09:32:25;14.00;69.76
77100;SHT31;66602;48.922;2.414;2024-03-29T09:34:50;13.79;69.85
77100;SHT31;66602;48.922;2.414;2024-03-29T09:37:16;13.67;70.52
77100;SHT31;66602;48.922;2.414;2024-03-29T09:39:43;13.97;69.95
77100;SHT31;66602;48.922;2.414;2024-03-29T09:42:15;14.52;67.58
77100;SHT31;66602;48.922;2.414;2024-03-29T09:44:43;14.27;68.39
77100;SHT31;66602;48.922;2.414;2024-03-29T09:47:09;14.83;67.12
77100;SHT31;66602;48.922;2.414;2024-03-29T09:49:36;14.99;66.79
77100;SHT31;66602;48.922;2.414;2024-03-29T09:52:02;14.76;66.39
77100;SHT31;66602;48.922;2.414;2024-03-29T09:54:29;14.48;67.24
77100;SHT31;66602;48.922;2.414;2024-03-29T09:56:58;14.14;67.64
77100;SHT31;66602;48.922;2.414;2024-03-29T09:59:24;13.84;68.89
77100;SHT31;66602;48.922;2.414;2024-03-29T10:01:51;14.00;68.06
77100;SHT31;66602;48.922;2.414;2024-03-29T10:04:20;14.52;66.73
77100;SHT31;66602;48.922;2.414;2024-03-29T10:06:48;14.86;65.56
77100;SHT31;66602;48.922;2.414;2024-03-29T10:09:21;14.92;64.97
77100;SHT31;66602;48.922;2.414;2024-03-29T10:11:47;15.20;64.23
77100;SHT31;66602;48.922;2.414;2024-03-29T10:14:13;15.18;64.00
77100;SHT31;66602;48.922;2.414;2024-03-29T10:16:39;15.09;63.38
77100;SHT31;66602;48.922;2.414;2024-03-29T10:19:05;14.98;63.64
77100;SHT31;66602;48.922;2.414;2024-03-29T10:21:32;14.92;63.15
77100;SHT31;66602;48.922;2.414;2024-03-29T10:24:00;14.49;64.85
77100;SHT31;66602;48.922;2.414;2024-03-29T10:26:25;14.31;65.80
77100;SHT31;66602;48.922;2.414;2024-03-29T10:28:51;14.52;64.72
77100;SHT31;66602;48.922;2.414;2024-03-29T10:31:17;14.45;65.45
77100;SHT31;66602;48.922;2.414;2024-03-29T10:33:43;14.68;65.02
77100;SHT31;66602;48.922;2.414;2024-03-29T10:36:10;15.60;62.02
77100;SHT31;66602;48.922;2.414;2024-03-29T10:38:38;16.10;60.06
77100;SHT31;66602;48.922;2.414;2024-03-29T10:42:52;16.45;58.14
77100;SHT31;66602;48.922;2.414;2024-03-29T10:45:18;16.32;58.15
77100;SHT31;66602;48.922;2.414;2024-03-29T10:47:45;16.83;57.94
77100;SHT31;66602;48.922;2.414;2024-03-29T10:50:14;19.46;50.85
77100;SHT31;66602;48.922;2.414;2024-03-29T10:52:42;19.00;51.49
77100;SHT31;66602;48.922;2.414;2024-03-29T10:55:09;18.73;52.37
77100;SHT31;66602;48.922;2.414;2024-03-29T10:57:39;19.50;50.97
77100;SHT31;66602;48.922;2.414;2024-03-29T11:00:13;19.68;49.78
77100;SHT31;66602;48.922;2.414;2024-03-29T11:05:21;18.04;51.98
77100;SHT31;66602;48.922;2.414;2024-03-29T11:07:49;17.91;53.41
77100;SHT31;66602;48.922;2.414;2024-03-29T11:10:25;17.52;54.98
77100;SHT31;66602;48.922;2.414;2024-03-29T11:13:05;17.28;54.92
77100;SHT31;66602;48.922;2.414;2024-03-29T11:15:41;17.46;54.81
77100;SHT31;66602;48.922;2.414;2024-03-29T11:18:10;16.91;55.61
77100;SHT31;66602;48.922;2.414;2024-03-29T11:20:36;16.90;54.68
77100;SHT31;66602;48.922;2.414;2024-03-29T11:23:10;16.63;54.02
77100;SHT31;66602;48.922;2.414;2024-03-29T11:25:55;16.46;54.78
77100;SHT31;66602;48.922;2.414;2024-03-29T11:28:30;15.95;55.08
77100;SHT31;66602;48.922;2.414;2024-03-29T11:31:06;16.09;55.34
77100;SHT31;66602;48.922;2.414;2024-03-29T11:33:43;15.87;55.59
77100;SHT31;66602;48.922;2.414;2024-03-29T11:36:15;15.60;56.60
77100;SHT31;66602;48.922;2.414;2024-03-29T11:38:48;15.92;55.88
77100;SHT31;66602;48.922;2.414;2024-03-29T11:41:21;16.22;55.60
77100;SHT31;66602;48.922;2.414;2024-03-29T11:43:56;16.28;55.39
77100;SHT31;66602;48.922;2.414;2024-03-29T11:46:22;16.95;54.34
77100;SHT31;66602;48.922;2.414;2024-03-29T11:48:48;17.86;51.62
77100;SHT31;66602;48.922;2.414;2024-03-29T11:51:19;18.06;51.19
77100;SHT31;66602;48.922;2.414;2024-03-29T11:53:50;17.89;51.97
77100;SHT31;66602;48.922;2.414;2024-03-29T11:56:20;17.97;50.48
77100;SHT31;66602;48.922;2.414;2024-03-29T11:58:46;18.45;49.79
77100;SHT31;66602;48.922;2.414;2024-03-29T12:01:13;19.16;48.30
77100;SHT31;66602;48.922;2.414;2024-03-29T12:03:43;20.25;45.32
77100;SHT31;66602;48.922;2.414;2024-03-29T12:06:14;19.78;45.41
77100;SHT31;66602;48.922;2.414;2024-03-29T12:08:40;19.22;46.11
77100;SHT31;66602;48.922;2.414;2024-03-29T12:11:09;18.79;47.78
77100;SHT31;66602;48.922;2.414;2024-03-29T12:13:34;19.02;46.79
77100;SHT31;66602;48.922;2.414;2024-03-29T12:16:00;18.55;47.58
77100;SHT31;66602;48.922;2.414;2024-03-29T12:18:26;19.44;45.91
77100;SHT31;66602;48.922;2.414;2024-03-29T12:20:58;20.12;45.17
77100;SHT31;66602;48.922;2.414;2024-03-29T12:23:23;20.22;44.72
77100;SHT31;66602;48.922;2.414;2024-03-29T12:25:50;19.43;45.68
77100;SHT31;66602;48.922;2.414;2024-03-29T12:28:16;19.16;47.05
77100;SHT31;66602;48.922;2.414;2024-03-29T12:30:47;18.75;45.89
77100;SHT31;66602;48.922;2.414;2024-03-29T12:33:18;17.87;47.00
77100;SHT31;66602;48.922;2.414;2024-03-29T12:35:47;17.62;48.56
77100;SHT31;66602;48.922;2.414;2024-03-29T12:38:18;17.48;49.43
77100;SHT31;66602;48.922;2.414;2024-03-29T12:40:46;17.48;49.96
77100;SHT31;66602;48.922;2.414;2024-03-29T12:43:13;17.65;49.76
77100;SHT31;66602;48.922;2.414;2024-03-29T12:45:41;17.72;49.48
77100;SHT31;66602;48.922;2.414;2024-03-29T12:48:11;17.93;48.50
77100;SHT31;66602;48.922;2.414;2024-03-29T12:50:40;18.08;48.76
77100;SHT31;66602;48.922;2.414;2024-03-29T12:53:07;18.23;48.49
77100;SHT31;66602;48.922;2.414;2024-03-29T12:55:33;18.55;46.85
77100;SHT31;66602;48.922;2.414;2024-03-29T12:58:05;18.37;47.85
77100;SHT31;66602;48.922;2.414;2024-03-29T13:00:33;17.80;48.35
77100;SHT31;66602;48.922;2.414;2024-03-29T13:02:59;17.62;49.40
77100;SHT31;66602;48.922;2.414;2024-03-29T13:05:26;17.24;49.53
77100;SHT31;66602;48.922;2.414;2024-03-29T13:07:53;17.07;50.42
77100;SHT31;66602;48.922;2.414;2024-03-29T13:10:18;16.98;50.43
77100;SHT31;66602;48.922;2.414;2024-03-29T13:12:47;17.18;49.93
77100;SHT31;66602;48.922;2.414;2024-03-29T13:15:17;17.25;49.71
77100;SHT31;66602;48.922;2.414;2024-03-29T13:17:44;17.50;49.29
77100;SHT31;66602;48.922;2.414;2024-03-29T13:20:10;17.27;48.84
77100;SHT31;66602;48.922;2.414;2024-03-29T13:22:36;17.28;48.52
77100;SHT31;66602;48.922;2.414;2024-03-29T13:25:02;17.43;48.80
77100;SHT31;66602;48.922;2.414;2024-03-29T13:27:29;17.83;48.16
77100;SHT31;66602;48.922;2.414;2024-03-29T13:29:55;18.55;46.73
77100;SHT31;66602;48.922;2.414;2024-03-29T13:32:20;18.47;46.17
77100;SHT31;66602;48.922;2.414;2024-03-29T13:34:46;18.11;47.48
77100;SHT31;66602;48.922;2.414;2024-03-29T13:37:12;18.54;46.44
77100;SHT31;66602;48.922;2.414;2024-03-29T13:39:37;18.61;46.64
77100;SHT31;66602;48.922;2.414;2024-03-29T13:42:03;18.99;45.45
77100;SHT31;66602;48.922;2.414;2024-03-29T13:44:28;19.07;44.83
77100;SHT31;66602;48.922;2.414;2024-03-29T13:46:54;18.44;45.29
77100;SHT31;66602;48.922;2.414;2024-03-29T13:49:19;18.10;45.97
77100;SHT31;66602;48.922;2.414;2024-03-29T13:51:47;18.04;46.35
77100;SHT31;66602;48.922;2.414;2024-03-29T13:54:13;18.01;46.72
77100;SHT31;66602;48.922;2.414;2024-03-29T13:56:38;17.96;47.32
77100;SHT31;66602;48.922;2.414;2024-03-29T13:59:04;17.76;48.00
77100;SHT31;66602;48.922;2.414;2024-03-29T14:01:29;17.61;48.36
77100;SHT31;66602;48.922;2.414;2024-03-29T14:03:55;17.07;50.05
77100;SHT31;66602;48.922;2.414;2024-03-29T14:06:21;16.70;50.95
77100;SHT31;66602;48.922;2.414;2024-03-29T14:08:47;16.52;51.51
77100;SHT31;66602;48.922;2.414;2024-03-29T14:11:12;16.30;52.64
77100;SHT31;66602;48.922;2.414;2024-03-29T14:13:39;16.29;52.43
77100;SHT31;66602;48.922;2.414;2024-03-29T14:16:05;16.38;52.06
77100;SHT31;66602;48.922;2.414;2024-03-29T14:18:30;16.49;51.10
77100;SHT31;66602;48.922;2.414;2024-03-29T14:20:56;16.47;50.96
77100;SHT31;66602;48.922;2.414;2024-03-29T14:23:22;16.55;50.38
77100;SHT31;66602;48.922;2.414;2024-03-29T14:25:50;16.39;50.10
77100;SHT31;66602;48.922;2.414;2024-03-29T14:28:16;16.36;50.84
77100;SHT31;66602;48.922;2.414;2024-03-29T14:30:41;16.36;51.04
77100;SHT31;66602;48.922;2.414;2024-03-29T14:33:08;16.40;50.63
77100;SHT31;66602;48.922;2.414;2024-03-29T14:35:36;16.56;51.06
77100;SHT31;66602;48.922;2.414;2024-03-29T14:38:02;16.60;51.26
77100;SHT31;66602;48.922;2.414;2024-03-29T14:40:28;16.77;51.10
77100;SHT31;66602;48.922;2.414;2024-03-29T14:42:53;16.74;50.47
77100;SHT31;66602;48.922;2.414;2024-03-29T14:45:24;16.78;50.69
77100;SHT31;66602;48.922;2.414;2024-03-29T14:47:50;16.80;50.65
77100;SHT31;66602;48.922;2.414;2024-03-29T14:50:16;16.63;51.07
77100;SHT31;66602;48.922;2.414;2024-03-29T14:52:43;16.60;51.45
77100;SHT31;66602;48.922;2.414;2024-03-29T14:55:09;16.43;51.89
77100;SHT31;66602;48.922;2.414;2024-03-29T14:57:34;16.25;52.74
77100;SHT31;66602;48.922;2.414;2024-03-29T14:59:59;16.19;53.61
77100;SHT31;66602;48.922;2.414;2024-03-29T15:02:25;16.23;53.56
77100;SHT31;66602;48.922;2.414;2024-03-29T15:04:50;16.18;54.59
77100;SHT31;66602;48.922;2.414;2024-03-29T15:07:16;16.09;54.47
77100;SHT31;66602;48.922;2.414;2024-03-29T15:09:41;16.04;55.03
77100;SHT31;66602;48.922;2.414;2024-03-29T15:12:07;15.97;54.93
77100;SHT31;66602;48.922;2.414;2024-03-29T15:14:34;15.82;55.29
77100;SHT31;66602;48.922;2.414;2024-03-29T15:17:03;15.74;55.10
77100;SHT31;66602;48.922;2.414;2024-03-29T15:19:29;15.65;55.74
77100;SHT31;66602;48.922;2.414;2024-03-29T15:21:55;15.51;55.86
77100;SHT31;66602;48.922;2.414;2024-03-29T15:24:22;15.40;56.58
77100;SHT31;66602;48.922;2.414;2024-03-29T15:26:47;15.36;56.28
77100;SHT31;66602;48.922;2.414;2024-03-29T15:29:13;15.33;56.79
77100;SHT31;66602;48.922;2.414;2024-03-29T15:31:41;15.24;57.75
77100;SHT31;66602;48.922;2.414;2024-03-29T15:34:09;15.10;59.05
77100;SHT31;66602;48.922;2.414;2024-03-29T15:36:35;14.92;61.87
77100;SHT31;66602;48.922;2.414;2024-03-29T15:39:03;14.67;62.78